createdAt,value
2022-11-10T00:01:38.370Z,101562.66
2022-11-10T00:04:28.043Z,101553.53
2022-11-10T00:07:17.012Z,101563.25
2022-11-10T00:10:08.002Z,101562.06
2022-11-10T00:12:57.092Z,101581.78
2022-11-10T00:16:24.281Z,101577.03
2022-11-10T00:19:13.164Z,101573.38
2022-11-10T00:22:02.885Z,101575.84
2022-11-10T00:24:51.603Z,101577.91
2022-11-10T00:27:40.815Z,101575.50
2022-11-10T00:30:30.397Z,101561.44
2022-11-10T00:33:19.806Z,101572.47
2022-11-10T00:36:09.293Z,101586.75
2022-11-10T00:38:57.963Z,101593.97
2022-11-10T00:41:46.953Z,101582.00
2022-11-10T00:44:36.403Z,101562.56
2022-11-10T00:47:25.165Z,101576.91
2022-11-10T00:50:14.199Z,101575.88
2022-11-10T00:53:03.152Z,101571.31
2022-11-10T00:55:52.414Z,101557.34
2022-11-10T00:58:41.774Z,101566.59
2022-11-10T01:01:31.382Z,101581.56
2022-11-10T01:04:20.958Z,101593.06
2022-11-10T01:07:09.592Z,101563.56
2022-11-10T01:09:58.126Z,101578.84
2022-11-10T01:12:47.415Z,101583.28
2022-11-10T01:15:37.019Z,101570.66
2022-11-10T01:18:26.222Z,101571.19
2022-11-10T01:21:15.227Z,101587.19
2022-11-10T01:24:04.218Z,101580.53
2022-11-10T01:26:53.568Z,101581.66
2022-11-10T01:29:42.751Z,101581.50
2022-11-10T01:32:33.098Z,101593.16
2022-11-10T01:35:21.979Z,101578.38
2022-11-10T01:38:10.893Z,101558.50
2022-11-10T01:41:01.055Z,101571.72
2022-11-10T01:43:49.869Z,101566.28
2022-11-10T01:46:39.116Z,101554.25
2022-11-10T01:49:29.396Z,101563.47
2022-11-10T01:52:18.213Z,101559.56
2022-11-10T01:55:07.525Z,101563.09
2022-11-10T01:57:56.661Z,101551.56
2022-11-10T02:00:46.176Z,101563.88
2022-11-10T02:03:39.550Z,101560.78
2022-11-10T02:06:32.586Z,101546.75
2022-11-10T02:09:21.673Z,101539.97
2022-11-10T02:12:10.584Z,101529.66
2022-11-10T02:15:00.014Z,101537.72
2022-11-10T02:17:50.456Z,101527.84
2022-11-10T02:20:39.289Z,101525.41
2022-11-10T02:23:36.990Z,101528.50
2022-11-10T02:26:28.460Z,101532.72
2022-11-10T02:29:17.258Z,101534.34
2022-11-10T02:32:06.387Z,101535.16
2022-11-10T02:34:55.179Z,101539.53
2022-11-10T02:37:44.050Z,101516.31
2022-11-10T02:40:32.660Z,101504.16
2022-11-10T02:43:22.509Z,101496.22
2022-11-10T02:46:12.418Z,101525.75
2022-11-10T02:49:01.440Z,101516.19
2022-11-10T02:51:50.545Z,101524.13
2022-11-10T02:54:39.177Z,101520.25
2022-11-10T02:57:27.983Z,101530.94
2022-11-10T03:00:16.944Z,101542.34
2022-11-10T03:03:06.702Z,101531.06
2022-11-10T03:05:55.445Z,101540.94
2022-11-10T03:08:43.995Z,101545.72
2022-11-10T03:11:32.942Z,101524.63
2022-11-10T03:14:21.633Z,101514.38
2022-11-10T03:17:11.036Z,101530.25
2022-11-10T03:19:59.989Z,101521.78
2022-11-10T03:22:48.694Z,101525.75
2022-11-10T03:25:38.854Z,101491.03
2022-11-10T03:28:27.816Z,101504.78
2022-11-10T03:31:16.840Z,101513.00
2022-11-10T03:34:06.279Z,101525.31
2022-11-10T03:36:55.385Z,101523.88
2022-11-10T03:39:44.107Z,101517.16
2022-11-10T03:42:33.385Z,101508.13
2022-11-10T03:45:21.878Z,101521.34
2022-11-10T03:48:10.995Z,101521.84
2022-11-10T03:50:59.814Z,101513.28
2022-11-10T03:53:48.366Z,101522.50
2022-11-10T03:56:37.033Z,101530.25
2022-11-10T03:59:26.328Z,101536.31
2022-11-10T04:02:15.356Z,101521.75
2022-11-10T04:05:22.492Z,101544.34
2022-11-10T04:08:35.082Z,101548.47
2022-11-10T04:11:42.679Z,101561.91
2022-11-10T04:14:49.540Z,101563.59
2022-11-10T04:17:39.391Z,101555.47
2022-11-10T04:20:28.574Z,101578.81
2022-11-10T04:23:30.680Z,101575.16
2022-11-10T04:26:31.609Z,101562.91
2022-11-10T04:29:21.715Z,101583.06
2022-11-10T04:32:10.756Z,101583.81
2022-11-10T04:34:59.870Z,101595.19
2022-11-10T04:37:49.318Z,101593.41
2022-11-10T04:40:38.120Z,101594.16
2022-11-10T04:43:27.322Z,101594.03
2022-11-10T04:46:29.152Z,101593.88
2022-11-10T04:49:18.029Z,101600.66
2022-11-10T04:52:07.071Z,101603.56
2022-11-10T04:54:56.280Z,101602.72
2022-11-10T04:57:45.628Z,101606.75
2022-11-10T05:00:35.056Z,101607.03
2022-11-10T05:03:23.948Z,101592.69
2022-11-10T05:06:13.781Z,101603.94
2022-11-10T05:09:02.812Z,101604.66
2022-11-10T05:11:51.683Z,101628.50
2022-11-10T05:14:41.145Z,101615.31
2022-11-10T05:17:30.025Z,101621.28
2022-11-10T05:20:24.517Z,101616.88
2022-11-10T05:23:31.798Z,101624.38
2022-11-10T05:26:21.261Z,101607.66
2022-11-10T05:29:10.618Z,101625.81
2022-11-10T05:31:59.647Z,101631.78
2022-11-10T05:34:48.602Z,101629.00
2022-11-10T05:37:37.479Z,101622.03
2022-11-10T05:40:26.506Z,101610.47
2022-11-10T05:43:15.809Z,101616.13
2022-11-10T05:46:05.552Z,101631.25
2022-11-10T05:48:54.454Z,101640.84
2022-11-10T05:51:43.092Z,101644.41
2022-11-10T05:54:31.669Z,101641.16
2022-11-10T05:57:20.851Z,101646.41
2022-11-10T06:00:11.270Z,101648.09
2022-11-10T06:03:05.223Z,101643.13
2022-11-10T06:05:54.838Z,101661.25
2022-11-10T06:08:44.233Z,101668.94
2022-11-10T06:11:33.051Z,101678.19
2022-11-10T06:14:22.453Z,101671.66
2022-11-10T06:17:11.261Z,101678.22
2022-11-10T06:20:00.612Z,101680.38
2022-11-10T06:23:11.775Z,101682.06
2022-11-10T06:26:01.000Z,101714.28
2022-11-10T06:28:50.147Z,101713.94
2022-11-10T06:31:39.091Z,101714.72
2022-11-10T06:34:28.273Z,101701.94
2022-11-10T06:37:17.537Z,101702.69
2022-11-10T06:40:07.495Z,101723.16
2022-11-10T06:42:56.631Z,101712.41
2022-11-10T06:45:45.842Z,101705.50
2022-11-10T06:48:34.929Z,101723.13
2022-11-10T06:51:24.293Z,101729.63
2022-11-10T06:54:13.539Z,101717.53
2022-11-10T06:57:02.935Z,101727.09
2022-11-10T06:59:52.452Z,101727.44
2022-11-10T07:02:41.741Z,101732.28
2022-11-10T07:05:31.550Z,101735.97
2022-11-10T07:08:20.525Z,101754.38
2022-11-10T07:11:09.738Z,101748.03
2022-11-10T07:13:59.162Z,101755.59
2022-11-10T07:16:48.396Z,101764.25
2022-11-10T07:19:37.500Z,101751.03
2022-11-10T07:22:26.496Z,101765.97
2022-11-10T07:25:15.713Z,101760.47
2022-11-10T07:28:07.109Z,101764.09
2022-11-10T07:30:57.194Z,101774.19
2022-11-10T07:33:50.610Z,101782.78
2022-11-10T07:36:43.298Z,101785.06
2022-11-10T07:39:32.868Z,101791.97
2022-11-10T07:42:21.832Z,101757.44
2022-11-10T07:45:11.390Z,101798.53
2022-11-10T07:48:04.197Z,101799.31
2022-11-10T07:50:53.487Z,101795.13
2022-11-10T07:53:42.978Z,101800.69
2022-11-10T07:56:32.285Z,101811.00
2022-11-10T07:59:20.930Z,101799.13
2022-11-10T08:02:13.180Z,101824.28
2022-11-10T08:05:02.024Z,101804.34
2022-11-10T08:07:51.074Z,101824.69
2022-11-10T08:10:40.775Z,101825.38
2022-11-10T08:13:30.146Z,101831.47
2022-11-10T08:16:20.225Z,101822.13
2022-11-10T08:19:09.954Z,101821.88
2022-11-10T08:21:58.905Z,101824.69
2022-11-10T08:24:48.734Z,101837.34
2022-11-10T08:27:37.771Z,101841.78
2022-11-10T08:30:27.323Z,101841.78
2022-11-10T08:33:18.818Z,101843.81
2022-11-10T08:36:08.046Z,101845.13
2022-11-10T08:38:56.938Z,101833.16
2022-11-10T08:41:46.351Z,101854.53
2022-11-10T08:44:35.198Z,101857.09
2022-11-10T08:47:24.604Z,101871.34
2022-11-10T08:50:13.759Z,101848.00
2022-11-10T08:53:07.985Z,101875.66
2022-11-10T08:56:01.224Z,101893.16
2022-11-10T08:58:53.477Z,101878.50
2022-11-10T09:01:42.581Z,101886.41
2022-11-10T09:04:32.065Z,101871.31
2022-11-10T09:07:20.914Z,101873.50
2022-11-10T09:10:10.836Z,101882.03
2022-11-10T09:13:03.578Z,101864.19
2022-11-10T09:15:56.244Z,101888.59
2022-11-10T09:18:45.144Z,101882.16
2022-11-10T09:21:34.210Z,101882.41
2022-11-10T09:24:25.922Z,101887.03
2022-11-10T09:27:19.581Z,101879.16
2022-11-10T09:30:13.104Z,101874.66
2022-11-10T09:33:06.290Z,101868.56
2022-11-10T09:36:04.217Z,101863.00
2022-11-10T09:38:53.757Z,101876.19
2022-11-10T09:41:43.872Z,101868.44
2022-11-10T09:44:54.044Z,101866.69
2022-11-10T09:47:57.490Z,101884.28
2022-11-10T09:51:26.317Z,101867.31
2022-11-10T09:54:27.697Z,101877.09
2022-11-10T09:57:19.569Z,101875.09
2022-11-10T10:00:09.394Z,101875.22
2022-11-10T10:03:04.863Z,101879.47
2022-11-10T10:06:03.842Z,101879.59
2022-11-10T10:09:10.930Z,101884.91
2022-11-10T10:12:26.129Z,101893.94
2022-11-10T10:15:19.186Z,101894.91
2022-11-10T10:18:31.328Z,101904.91
2022-11-10T10:21:23.668Z,101898.78
2022-11-10T10:24:21.870Z,101894.41
2022-11-10T10:27:24.961Z,101906.66
2022-11-10T10:30:19.298Z,101898.66
2022-11-10T10:33:19.030Z,101887.13
2022-11-10T10:36:11.955Z,101876.53
2022-11-10T10:39:05.267Z,101875.34
2022-11-10T10:41:53.916Z,101862.03
2022-11-10T10:44:42.875Z,101861.69
2022-11-10T10:47:40.507Z,101858.75
2022-11-10T10:50:35.869Z,101849.03
2022-11-10T10:53:26.541Z,101850.09
2022-11-10T10:56:22.938Z,101848.00
2022-11-10T10:59:21.420Z,101844.38
2022-11-10T11:02:33.467Z,101848.00
2022-11-10T11:05:22.580Z,101834.91
2022-11-10T11:08:21.149Z,101859.06
2022-11-10T11:11:13.242Z,101852.84
2022-11-10T11:14:30.112Z,101861.00
2022-11-10T11:17:24.405Z,101859.56
2022-11-10T11:20:16.917Z,101863.31
2022-11-10T11:23:09.136Z,101861.66
2022-11-10T11:26:04.185Z,101838.09
2022-11-10T11:29:02.650Z,101864.38
2022-11-10T11:32:09.132Z,101857.44
2022-11-10T11:35:15.682Z,101854.47
2022-11-10T11:38:10.594Z,101850.38
2022-11-10T11:41:17.659Z,101836.94
2022-11-10T11:44:26.662Z,101827.97
2022-11-10T11:47:37.191Z,101833.16
2022-11-10T11:50:34.937Z,101830.56
2022-11-10T11:53:36.180Z,101823.75
2022-11-10T11:56:37.822Z,101804.16
2022-11-10T11:59:50.789Z,101808.09
2022-11-10T12:02:52.922Z,101812.28
2022-11-10T12:05:50.859Z,101805.09
2022-11-10T12:08:42.303Z,101803.81
2022-11-10T12:11:34.210Z,101801.56
2022-11-10T12:14:42.993Z,101797.81
2022-11-10T12:18:24.719Z,101798.66
2022-11-10T12:21:27.366Z,101782.47
2022-11-10T12:24:16.293Z,101778.81
2022-11-10T12:27:26.287Z,101775.56
2022-11-10T12:30:18.299Z,101762.47
2022-11-10T12:33:20.141Z,101753.16
2022-11-10T12:36:13.308Z,101718.91
2022-11-10T12:39:21.881Z,101728.78
2022-11-10T12:42:19.398Z,101714.91
2022-11-10T12:45:17.455Z,101730.59
2022-11-10T12:48:06.944Z,101720.91
2022-11-10T12:51:11.531Z,101731.84
2022-11-10T12:54:00.141Z,101735.50
2022-11-10T12:56:54.529Z,101729.59
2022-11-10T12:59:52.336Z,101712.91
2022-11-10T13:02:46.732Z,101723.25
2022-11-10T13:05:44.095Z,101720.78
2022-11-10T13:08:44.940Z,101705.34
2022-11-10T13:11:38.229Z,101693.56
2022-11-10T13:14:33.707Z,101678.13
2022-11-10T13:17:28.957Z,101673.66
2022-11-10T13:20:42.300Z,101679.91
2022-11-10T13:23:34.743Z,101659.41
2022-11-10T13:26:41.817Z,101645.84
2022-11-10T13:29:38.247Z,101634.69
2022-11-10T13:32:34.838Z,101637.22
2022-11-10T13:35:33.217Z,101629.44
2022-11-10T13:38:45.919Z,101640.22
2022-11-10T13:41:34.983Z,101644.25
2022-11-10T13:44:31.060Z,101646.75
2022-11-10T13:47:47.384Z,101633.81
2022-11-10T13:50:55.619Z,101620.16
2022-11-10T13:54:34.509Z,101613.84
2022-11-10T13:57:38.848Z,101605.50
2022-11-10T14:00:34.033Z,101607.84
2022-11-10T14:03:47.594Z,101599.72
2022-11-10T14:06:39.387Z,101602.91
2022-11-10T14:09:35.038Z,101585.50
2022-11-10T14:12:32.922Z,101601.97
2022-11-10T14:15:51.275Z,101599.72
2022-11-10T14:18:56.373Z,101596.06
2022-11-10T14:21:55.401Z,101599.69
2022-11-10T14:25:18.288Z,101602.16
2022-11-10T14:28:26.745Z,101591.81
2022-11-10T14:31:27.923Z,101591.00
2022-11-10T14:34:20.695Z,101591.03
2022-11-10T14:37:15.032Z,101580.56
2022-11-10T14:40:05.153Z,101585.72
2022-11-10T14:42:54.286Z,101566.22
2022-11-10T14:45:54.344Z,101548.81
2022-11-10T14:48:43.093Z,101567.16
2022-11-10T14:51:32.286Z,101564.78
2022-11-10T14:54:28.102Z,101540.56
2022-11-10T14:57:20.437Z,101516.59
2022-11-10T15:00:27.259Z,101507.81
2022-11-10T15:03:23.942Z,101497.06
2022-11-10T15:06:14.827Z,101512.34
2022-11-10T15:09:16.121Z,101530.75
2022-11-10T15:12:05.125Z,101516.69
2022-11-10T15:15:02.185Z,101496.22
2022-11-10T15:17:53.094Z,101507.38
2022-11-10T15:20:43.234Z,101516.53
2022-11-10T15:23:39.016Z,101528.75
2022-11-10T15:26:36.667Z,101542.41
2022-11-10T15:29:26.690Z,101536.72
2022-11-10T15:32:22.535Z,101539.84
2022-11-10T15:35:32.431Z,101541.03
2022-11-10T15:38:24.396Z,101526.28
2022-11-10T15:41:14.592Z,101533.09
2022-11-10T15:44:25.988Z,101518.53
2022-11-10T15:47:16.508Z,101532.16
2022-11-10T15:50:05.748Z,101512.84
2022-11-10T15:52:55.389Z,101511.50
2022-11-10T15:55:45.950Z,101501.63
2022-11-10T15:58:35.319Z,101490.81
2022-11-10T16:01:23.955Z,101480.72
2022-11-10T16:04:14.178Z,101482.16
2022-11-10T16:07:03.430Z,101477.09
2022-11-10T16:09:52.861Z,101479.84
2022-11-10T16:12:42.577Z,101481.56
2022-11-10T16:15:31.954Z,101473.94
2022-11-10T16:18:23.681Z,101470.41
2022-11-10T16:21:17.041Z,101462.09
2022-11-10T16:24:06.573Z,101464.88
2022-11-10T16:26:55.767Z,101465.84
2022-11-10T16:29:44.797Z,101448.56
2022-11-10T16:32:34.277Z,101448.84
2022-11-10T16:35:24.002Z,101456.59
2022-11-10T16:38:27.102Z,101455.50
2022-11-10T16:41:16.477Z,101432.03
2022-11-10T16:44:05.351Z,101444.69
2022-11-10T16:46:58.295Z,101447.28
2022-11-10T16:49:48.263Z,101439.78
2022-11-10T16:52:37.818Z,101447.03
2022-11-10T16:55:27.532Z,101445.53
2022-11-10T16:58:17.240Z,101449.03
2022-11-10T17:01:06.886Z,101449.41
2022-11-10T17:03:58.863Z,101454.00
2022-11-10T17:06:48.011Z,101450.22
2022-11-10T17:09:36.882Z,101447.75
2022-11-10T17:12:26.330Z,101442.34
2022-11-10T17:15:19.463Z,101448.69
2022-11-10T17:18:09.015Z,101442.22
2022-11-10T17:20:58.035Z,101424.72
2022-11-10T17:23:47.145Z,101425.09
2022-11-10T17:26:36.587Z,101419.63
2022-11-10T17:29:26.034Z,101429.88
2022-11-10T17:32:15.227Z,101412.31
2022-11-10T17:35:03.842Z,101419.66
2022-11-10T17:37:56.705Z,101425.66
2022-11-10T17:40:45.882Z,101425.31
2022-11-10T17:43:34.607Z,101429.53
2022-11-10T17:46:23.438Z,101408.78
2022-11-10T17:49:12.152Z,101437.88
2022-11-10T17:52:01.024Z,101428.13
2022-11-10T17:54:49.654Z,101437.97
2022-11-10T17:57:38.637Z,101433.06
2022-11-10T18:00:27.557Z,101425.19
2022-11-10T18:03:18.603Z,101431.44
2022-11-10T18:06:10.166Z,101422.63
2022-11-10T18:08:59.889Z,101433.41
2022-11-10T18:11:48.739Z,101435.75
2022-11-10T18:14:37.660Z,101444.22
2022-11-10T18:17:27.261Z,101434.34
2022-11-10T18:20:16.623Z,101426.16
2022-11-10T18:23:05.606Z,101416.50
2022-11-10T18:25:54.470Z,101419.91
2022-11-10T18:28:44.750Z,101405.03
2022-11-10T18:31:33.393Z,101392.56
2022-11-10T18:34:22.348Z,101375.06
2022-11-10T18:37:11.484Z,101357.84
2022-11-10T18:40:00.622Z,101373.94
2022-11-10T18:42:49.509Z,101371.56
2022-11-10T18:45:38.673Z,101373.44
2022-11-10T18:48:31.120Z,101364.88
2022-11-10T18:51:23.601Z,101379.78
2022-11-10T18:54:12.339Z,101376.38
2022-11-10T18:57:01.407Z,101381.88
2022-11-10T18:59:50.714Z,101366.63
2022-11-10T19:02:39.647Z,101370.97
2022-11-10T19:05:28.545Z,101365.22
2022-11-10T19:08:17.536Z,101373.09
2022-11-10T19:11:10.811Z,101374.63
2022-11-10T19:14:03.423Z,101381.19
2022-11-10T19:16:52.592Z,101386.94
2022-11-10T19:19:41.832Z,101389.75
2022-11-10T19:22:31.023Z,101383.31
2022-11-10T19:25:20.119Z,101386.50
2022-11-10T19:28:12.836Z,101370.16
2022-11-10T19:31:16.012Z,101364.16
2022-11-10T19:34:04.788Z,101356.53
2022-11-10T19:36:55.429Z,101336.59
2022-11-10T19:39:44.989Z,101342.22
2022-11-10T19:42:34.918Z,101359.47
2022-11-10T19:45:23.698Z,101351.84
2022-11-10T19:48:12.679Z,101357.00
2022-11-10T19:51:03.328Z,101359.00
2022-11-10T19:54:04.124Z,101354.09
2022-11-10T19:56:53.997Z,101352.06
2022-11-10T19:59:42.701Z,101346.94
2022-11-10T20:02:33.840Z,101336.59
2022-11-10T20:05:23.694Z,101348.06
2022-11-10T20:08:14.549Z,101353.59
2022-11-10T20:11:05.235Z,101340.44
2022-11-10T20:13:56.479Z,101336.59
2022-11-10T20:16:45.333Z,101339.03
2022-11-10T20:19:41.056Z,101339.25
2022-11-10T20:22:32.343Z,101330.69
2022-11-10T20:25:21.559Z,101326.72
2022-11-10T20:28:10.753Z,101333.97
2022-11-10T20:31:01.073Z,101326.34
2022-11-10T20:33:51.124Z,101320.25
2022-11-10T20:36:40.498Z,101314.69
2022-11-10T20:39:29.306Z,101307.78
2022-11-10T20:42:19.040Z,101314.59
2022-11-10T20:45:09.145Z,101314.34
2022-11-10T20:48:00.382Z,101307.44
2022-11-10T20:50:50.845Z,101308.81
2022-11-10T20:53:40.569Z,101293.91
2022-11-10T20:56:30.385Z,101319.81
2022-11-10T20:59:19.664Z,101302.75
2022-11-10T21:02:08.628Z,101288.84
2022-11-10T21:04:57.552Z,101288.66
2022-11-10T21:07:46.464Z,101293.59
2022-11-10T21:10:35.504Z,101285.63
2022-11-10T21:13:26.020Z,101279.44
2022-11-10T21:16:15.979Z,101273.00
2022-11-10T21:19:05.112Z,101284.00
2022-11-10T21:21:55.193Z,101287.38
2022-11-10T21:24:44.722Z,101289.94
2022-11-10T21:27:34.007Z,101300.16
2022-11-10T21:30:26.044Z,101293.84
2022-11-10T21:33:15.176Z,101283.34
2022-11-10T21:36:13.608Z,101276.72
2022-11-10T21:39:02.611Z,101270.06
2022-11-10T21:41:51.767Z,101297.06
2022-11-10T21:44:41.773Z,101290.59
2022-11-10T21:47:34.114Z,101298.59
2022-11-10T21:50:23.554Z,101306.97
2022-11-10T21:53:12.532Z,101305.84
2022-11-10T21:56:02.794Z,101319.28
2022-11-10T21:58:51.835Z,101304.66
2022-11-10T22:01:40.736Z,101312.03
2022-11-10T22:04:29.700Z,101312.97
2022-11-10T22:07:24.604Z,101331.81
2022-11-10T22:10:31.924Z,101339.63
2022-11-10T22:13:40.366Z,101326.75
2022-11-10T22:16:50.209Z,101348.81
2022-11-10T22:19:39.697Z,101348.16
2022-11-10T22:22:28.436Z,101336.91
2022-11-10T22:25:17.918Z,101342.75
2022-11-10T22:28:07.140Z,101348.81
2022-11-10T22:30:56.661Z,101341.25
2022-11-10T22:33:45.892Z,101336.81
2022-11-10T22:36:35.292Z,101332.47
2022-11-10T22:39:24.326Z,101318.06
2022-11-10T22:42:34.104Z,101293.38
2022-11-10T22:45:23.764Z,101214.41
2022-11-10T22:48:27.510Z,101199.13
2022-11-10T22:51:16.106Z,101189.06
2022-11-10T22:54:05.571Z,101215.84
2022-11-10T22:56:54.619Z,101219.69
2022-11-10T22:59:43.708Z,101223.28
2022-11-10T23:02:34.049Z,101211.66
2022-11-10T23:05:23.059Z,101191.03
2022-11-10T23:08:12.024Z,101162.94
2022-11-10T23:11:16.131Z,101168.28
2022-11-10T23:14:05.379Z,101167.31
2022-11-10T23:16:54.743Z,101153.63
2022-11-10T23:19:43.526Z,101142.22
2022-11-10T23:22:33.184Z,101144.94
2022-11-10T23:25:22.019Z,101143.06
2022-11-10T23:28:11.442Z,101149.63
2022-11-10T23:31:13.049Z,101141.81
2022-11-10T23:34:02.585Z,101137.84
2022-11-10T23:36:51.723Z,101125.63
2022-11-10T23:39:41.018Z,101131.41
2022-11-10T23:42:32.953Z,101103.44
2022-11-10T23:45:21.871Z,101118.09
2022-11-10T23:48:11.225Z,101104.47
2022-11-10T23:51:00.870Z,101111.88
2022-11-10T23:53:50.014Z,101099.41
2022-11-10T23:56:39.353Z,101089.94
2022-11-10T23:59:28.181Z,101087.78
